PWSweather.com
Personal Weather Stations
Station Observations
ITROMSHA6
HarstadNO 9407

HarstadNO 9407

Lat: 68.7814767, Lon: 16.5297091

Elevation: 145

Station Type: Davis Vantage Pro2

High Low Average
Temperature 19.1°F-7.2°C 15.2°F-9.3°C 16.7°F-8.5°C
Dew Point 16.2°F-8.8°C 11.3°F-11.5°C 13.5°F-10.3°C
Winds 10.0 mph 16.1 kmh 2.0 mph 3.2 kmh 6.0 mph WSW9.7 kmh WSW
Wind Gusts 12.0 mph19.3 kmh -- 2.0 mph3.2 kmh
Humidity 89% 83% 87%
Pressure 30.24 in1024.0 mb 30.12 in1020.0 mb -
Precipitation 0.00 in0.0 mm - -
Hour Temp Dew Point Humidity Winds Wind Gusts Pressure Precip Precip Rate Daily Precip Total
12:00 AM 16.1°F-8.8°C 12.4°F-10.9°C 85% 5.0 mph WSW8.0 kmh WSW -- 30.13 in1020.3 mb 0.00 in0.0 mm 0.00 in0.0 mm 0.00 in0.0 mm
12:05 AM 16.9°F-8.4°C 13.5°F-10.3°C 86% 8.0 mph WSW12.9 kmh WSW -- 30.13 in1020.3 mb 0.00 in0.0 mm 0.00 in0.0 mm 0.00 in0.0 mm
12:10 AM 17.1°F-8.3°C 13.3°F-10.4°C 85% 6.0 mph WSW9.7 kmh WSW -- 30.13 in1020.3 mb 0.00 in0.0 mm 0.00 in0.0 mm 0.00 in0.0 mm
12:15 AM 16.4°F-8.7°C 12.4°F-10.9°C 84% 7.0 mph WSW11.3 kmh WSW 11.0 mph17.7 kmh 30.12 in1020.0 mb 0.00 in0.0 mm 0.00 in0.0 mm 0.00 in0.0 mm
12:20 AM 15.8°F-9.0°C 11.7°F-11.3°C 83% 6.0 mph WSW9.7 kmh WSW -- 30.12 in1020.0 mb 0.00 in0.0 mm 0.00 in0.0 mm 0.00 in0.0 mm
12:25 AM 15.3°F-9.3°C 11.3°F-11.5°C 84% 8.0 mph W12.9 kmh W -- 30.13 in1020.3 mb 0.00 in0.0 mm 0.00 in0.0 mm 0.00 in0.0 mm
12:30 AM 15.8°F-9.0°C 12.0°F-11.1°C 85% 5.0 mph WSW8.0 kmh WSW -- 30.12 in1020.0 mb 0.00 in0.0 mm 0.00 in0.0 mm 0.00 in0.0 mm
12:35 AM 15.3°F-9.3°C 11.3°F-11.5°C 84% 7.0 mph WSW11.3 kmh WSW -- 30.13 in1020.3 mb 0.00 in0.0 mm 0.00 in0.0 mm 0.00 in0.0 mm
12:40 AM 15.6°F-9.1°C 11.7°F-11.3°C 84% 6.0 mph WSW9.7 kmh WSW 9.0 mph14.5 kmh 30.12 in1020.0 mb 0.00 in0.0 mm 0.00 in0.0 mm 0.00 in0.0 mm
12:45 AM 15.7°F-9.1°C 11.8°F-11.2°C 85% 5.0 mph W8.0 kmh W -- 30.13 in1020.3 mb 0.00 in0.0 mm 0.00 in0.0 mm 0.00 in0.0 mm
12:50 AM 16.5°F-8.6°C 12.7°F-10.7°C 85% 6.0 mph WSW9.7 kmh WSW -- 30.13 in1020.3 mb 0.00 in0.0 mm 0.00 in0.0 mm 0.00 in0.0 mm
12:55 AM 15.7°F-9.1°C 11.5°F-11.4°C 83% 5.0 mph WSW8.0 kmh WSW -- 30.12 in1020.0 mb 0.00 in0.0 mm 0.00 in0.0 mm 0.00 in0.0 mm
01:00 AM 15.7°F-9.1°C 11.7°F-11.3°C 84% 6.0 mph WSW9.7 kmh WSW -- 30.13 in1020.3 mb 0.00 in0.0 mm 0.00 in0.0 mm 0.00 in0.0 mm
01:05 AM 16.0°F-8.9°C 12.0°F-11.1°C 84% 5.0 mph WSW8.0 kmh WSW 7.0 mph11.3 kmh 30.13 in1020.3 mb 0.00 in0.0 mm 0.00 in0.0 mm 0.00 in0.0 mm
01:10 AM 16.3°F-8.7°C 12.0°F-11.1°C 83% 5.0 mph WSW8.0 kmh WSW -- 30.13 in1020.3 mb 0.00 in0.0 mm 0.00 in0.0 mm 0.00 in0.0 mm
01:15 AM 16.7°F-8.5°C 12.7°F-10.7°C 84% 4.0 mph WSW6.4 kmh WSW -- 30.13 in1020.3 mb 0.00 in0.0 mm 0.00 in0.0 mm 0.00 in0.0 mm
01:20 AM 16.4°F-8.7°C 12.0°F-11.1°C 83% 8.0 mph WSW12.9 kmh WSW -- 30.13 in1020.3 mb 0.00 in0.0 mm 0.00 in0.0 mm 0.00 in0.0 mm
01:25 AM 16.0°F-8.9°C 11.7°F-11.3°C 83% 9.0 mph WSW14.5 kmh WSW -- 30.13 in1020.3 mb 0.00 in0.0 mm 0.00 in0.0 mm 0.00 in0.0 mm
01:30 AM 15.6°F-9.1°C 11.7°F-11.3°C 84% 7.0 mph WSW11.3 kmh WSW 9.0 mph14.5 kmh 30.13 in1020.3 mb 0.00 in0.0 mm 0.00 in0.0 mm 0.00 in0.0 mm
01:35 AM 15.9°F-8.9°C 12.0°F-11.1°C 84% 6.0 mph W9.7 kmh W -- 30.13 in1020.3 mb 0.00 in0.0 mm 0.00 in0.0 mm 0.00 in0.0 mm
01:40 AM 16.1°F-8.8°C 12.2°F-11.0°C 84% 7.0 mph WSW11.3 kmh WSW -- 30.13 in1020.3 mb 0.00 in0.0 mm 0.00 in0.0 mm 0.00 in0.0 mm
01:45 AM 16.1°F-8.8°C 12.2°F-11.0°C 84% 4.0 mph WSW6.4 kmh WSW -- 30.13 in1020.3 mb 0.00 in0.0 mm 0.00 in0.0 mm 0.00 in0.0 mm
01:50 AM 16.0°F-8.9°C 12.0°F-11.1°C 84% 4.0 mph WSW6.4 kmh WSW -- 30.13 in1020.3 mb 0.00 in0.0 mm 0.00 in0.0 mm 0.00 in0.0 mm
01:55 AM 16.0°F-8.9°C 12.2°F-11.0°C 85% 4.0 mph WSW6.4 kmh WSW 7.0 mph11.3 kmh 30.13 in1020.3 mb 0.00 in0.0 mm 0.00 in0.0 mm 0.00 in0.0 mm
02:00 AM 16.2°F-8.8°C 12.4°F-10.9°C 85% 6.0 mph WSW9.7 kmh WSW -- 30.13 in1020.3 mb 0.00 in0.0 mm 0.00 in0.0 mm 0.00 in0.0 mm
02:05 AM 16.3°F-8.7°C 12.6°F-10.8°C 85% 4.0 mph SW6.4 kmh SW -- 30.13 in1020.3 mb 0.00 in0.0 mm 0.00 in0.0 mm 0.00 in0.0 mm
02:10 AM 16.3°F-8.7°C 12.6°F-10.8°C 85% 4.0 mph WSW6.4 kmh WSW -- 30.13 in1020.3 mb 0.00 in0.0 mm 0.00 in0.0 mm 0.00 in0.0 mm
02:15 AM 16.1°F-8.8°C 12.2°F-11.0°C 84% 4.0 mph WSW6.4 kmh WSW -- 30.13 in1020.3 mb 0.00 in0.0 mm 0.00 in0.0 mm 0.00 in0.0 mm
02:20 AM 16.0°F-8.9°C 12.2°F-11.0°C 85% 4.0 mph WSW6.4 kmh WSW 6.0 mph9.7 kmh 30.13 in1020.3 mb 0.00 in0.0 mm 0.00 in0.0 mm 0.00 in0.0 mm
02:25 AM 15.9°F-8.9°C 12.2°F-11.0°C 85% 5.0 mph WSW8.0 kmh WSW -- 30.14 in1020.7 mb 0.00 in0.0 mm 0.00 in0.0 mm 0.00 in0.0 mm
02:30 AM 15.3°F-9.3°C 11.7°F-11.3°C 85% 7.0 mph WSW11.3 kmh WSW -- 30.14 in1020.7 mb 0.00 in0.0 mm 0.00 in0.0 mm 0.00 in0.0 mm
02:35 AM 15.4°F-9.2°C 11.8°F-11.2°C 85% 5.0 mph WSW8.0 kmh WSW -- 30.14 in1020.7 mb 0.00 in0.0 mm 0.00 in0.0 mm 0.00 in0.0 mm
02:40 AM 15.4°F-9.2°C 12.0°F-11.1°C 86% 5.0 mph WSW8.0 kmh WSW -- 30.14 in1020.7 mb 0.00 in0.0 mm 0.00 in0.0 mm 0.00 in0.0 mm
02:45 AM 15.7°F-9.1°C 11.8°F-11.2°C 85% 8.0 mph WSW12.9 kmh WSW 9.0 mph14.5 kmh 30.14 in1020.7 mb 0.00 in0.0 mm 0.00 in0.0 mm 0.00 in0.0 mm
02:50 AM 15.3°F-9.3°C 11.7°F-11.3°C 85% 9.0 mph WSW14.5 kmh WSW -- 30.14 in1020.7 mb 0.00 in0.0 mm 0.00 in0.0 mm 0.00 in0.0 mm
02:55 AM 15.2°F-9.3°C 11.7°F-11.3°C 85% 6.0 mph WSW9.7 kmh WSW -- 30.14 in1020.7 mb 0.00 in0.0 mm 0.00 in0.0 mm 0.00 in0.0 mm
03:00 AM 15.7°F-9.1°C 12.2°F-11.0°C 86% 5.0 mph WSW8.0 kmh WSW -- 30.14 in1020.7 mb 0.00 in0.0 mm 0.00 in0.0 mm 0.00 in0.0 mm
03:05 AM 16.2°F-8.8°C 12.7°F-10.7°C 86% 5.0 mph WSW8.0 kmh WSW -- 30.14 in1020.7 mb 0.00 in0.0 mm 0.00 in0.0 mm 0.00 in0.0 mm
03:10 AM 16.5°F-8.6°C 12.7°F-10.7°C 85% 5.0 mph WSW8.0 kmh WSW 7.0 mph11.3 kmh 30.14 in1020.7 mb 0.00 in0.0 mm 0.00 in0.0 mm 0.00 in0.0 mm
03:15 AM 16.6°F-8.6°C 12.6°F-10.8°C 84% 4.0 mph WSW6.4 kmh WSW -- 30.14 in1020.7 mb 0.00 in0.0 mm 0.00 in0.0 mm 0.00 in0.0 mm
03:20 AM 16.1°F-8.8°C 12.2°F-11.0°C 84% 3.0 mph WSW4.8 kmh WSW -- 30.14 in1020.7 mb 0.00 in0.0 mm 0.00 in0.0 mm 0.00 in0.0 mm
03:25 AM 15.8°F-9.0°C 11.8°F-11.2°C 84% 4.0 mph WSW6.4 kmh WSW -- 30.14 in1020.7 mb 0.00 in0.0 mm 0.00 in0.0 mm 0.00 in0.0 mm
03:30 AM 15.8°F-9.0°C 12.0°F-11.1°C 85% 6.0 mph WSW9.7 kmh WSW -- 30.14 in1020.7 mb 0.00 in0.0 mm 0.00 in0.0 mm 0.00 in0.0 mm
03:35 AM 15.9°F-8.9°C 12.2°F-11.0°C 85% 6.0 mph WSW9.7 kmh WSW 7.0 mph11.3 kmh 30.14 in1020.7 mb 0.00 in0.0 mm 0.00 in0.0 mm 0.00 in0.0 mm
03:40 AM 16.0°F-8.9°C 12.2°F-11.0°C 85% 4.0 mph WSW6.4 kmh WSW -- 30.14 in1020.7 mb 0.00 in0.0 mm 0.00 in0.0 mm 0.00 in0.0 mm
03:45 AM 16.6°F-8.6°C 13.1°F-10.5°C 86% 5.0 mph WSW8.0 kmh WSW -- 30.14 in1020.7 mb 0.00 in0.0 mm 0.00 in0.0 mm 0.00 in0.0 mm
03:50 AM 17.0°F-8.3°C 13.3°F-10.4°C 85% 5.0 mph WSW8.0 kmh WSW -- 30.14 in1020.7 mb 0.00 in0.0 mm 0.00 in0.0 mm 0.00 in0.0 mm
03:55 AM 16.9°F-8.4°C 13.1°F-10.5°C 85% 7.0 mph WSW11.3 kmh WSW -- 30.14 in1020.7 mb 0.00 in0.0 mm 0.00 in0.0 mm 0.00 in0.0 mm
04:00 AM 17.2°F-8.2°C 13.5°F-10.3°C 85% 6.0 mph W9.7 kmh W 8.0 mph12.9 kmh 30.14 in1020.7 mb 0.00 in0.0 mm 0.00 in0.0 mm 0.00 in0.0 mm
04:05 AM 17.0°F-8.3°C 13.3°F-10.4°C 85% 6.0 mph WSW9.7 kmh WSW -- 30.14 in1020.7 mb 0.00 in0.0 mm 0.00 in0.0 mm 0.00 in0.0 mm
04:10 AM 17.3°F-8.2°C 13.5°F-10.3°C 85% 6.0 mph WSW9.7 kmh WSW -- 30.14 in1020.7 mb 0.00 in0.0 mm 0.00 in0.0 mm 0.00 in0.0 mm
04:15 AM 16.9°F-8.4°C 13.1°F-10.5°C 85% 5.0 mph WSW8.0 kmh WSW -- 30.14 in1020.7 mb 0.00 in0.0 mm 0.00 in0.0 mm 0.00 in0.0 mm
04:20 AM 17.2°F-8.2°C 13.8°F-10.1°C 86% 5.0 mph WSW8.0 kmh WSW -- 30.14 in1020.7 mb 0.00 in0.0 mm 0.00 in0.0 mm 0.00 in0.0 mm
04:25 AM 17.2°F-8.2°C 13.5°F-10.3°C 85% 4.0 mph SW6.4 kmh SW 8.0 mph12.9 kmh 30.14 in1020.7 mb 0.00 in0.0 mm 0.00 in0.0 mm 0.00 in0.0 mm
04:30 AM 17.6°F-8.0°C 14.2°F-9.9°C 86% 6.0 mph WSW9.7 kmh WSW -- 30.14 in1020.7 mb 0.00 in0.0 mm 0.00 in0.0 mm 0.00 in0.0 mm
04:35 AM 17.7°F-7.9°C 14.4°F-9.8°C 86% 5.0 mph WSW8.0 kmh WSW -- 30.14 in1020.7 mb 0.00 in0.0 mm 0.00 in0.0 mm 0.00 in0.0 mm
04:40 AM 18.3°F-7.6°C 14.9°F-9.5°C 86% 3.0 mph WSW4.8 kmh WSW -- 30.14 in1020.7 mb 0.00 in0.0 mm 0.00 in0.0 mm 0.00 in0.0 mm
04:45 AM 18.0°F-7.8°C 14.2°F-9.9°C 85% 3.0 mph WSW4.8 kmh WSW -- 30.14 in1020.7 mb 0.00 in0.0 mm 0.00 in0.0 mm 0.00 in0.0 mm
04:50 AM 17.8°F-7.9°C 14.0°F-10.0°C 85% 3.0 mph WSW4.8 kmh WSW 4.0 mph6.4 kmh 30.14 in1020.7 mb 0.00 in0.0 mm 0.00 in0.0 mm 0.00 in0.0 mm
04:55 AM 17.0°F-8.3°C 13.1°F-10.5°C 84% 3.0 mph WSW4.8 kmh WSW -- 30.14 in1020.7 mb 0.00 in0.0 mm 0.00 in0.0 mm 0.00 in0.0 mm
05:00 AM 16.2°F-8.8°C 12.4°F-10.9°C 85% 6.0 mph WSW9.7 kmh WSW -- 30.15 in1021.0 mb 0.00 in0.0 mm 0.00 in0.0 mm 0.00 in0.0 mm
05:05 AM 16.8°F-8.4°C 13.5°F-10.3°C 86% 4.0 mph WSW6.4 kmh WSW -- 30.14 in1020.7 mb 0.00 in0.0 mm 0.00 in0.0 mm 0.00 in0.0 mm
05:10 AM 16.4°F-8.7°C 12.6°F-10.8°C 85% 5.0 mph WSW8.0 kmh WSW -- 30.14 in1020.7 mb 0.00 in0.0 mm 0.00 in0.0 mm 0.00 in0.0 mm
05:15 AM 16.0°F-8.9°C 12.6°F-10.8°C 86% 4.0 mph WSW6.4 kmh WSW 7.0 mph11.3 kmh 30.14 in1020.7 mb 0.00 in0.0 mm 0.00 in0.0 mm 0.00 in0.0 mm
05:20 AM 15.9°F-8.9°C 12.6°F-10.8°C 86% 6.0 mph WSW9.7 kmh WSW -- 30.14 in1020.7 mb 0.00 in0.0 mm 0.00 in0.0 mm 0.00 in0.0 mm
05:25 AM 16.0°F-8.9°C 12.6°F-10.8°C 86% 4.0 mph WSW6.4 kmh WSW -- 30.14 in1020.7 mb 0.00 in0.0 mm 0.00 in0.0 mm 0.00 in0.0 mm
05:30 AM 15.8°F-9.0°C 12.4°F-10.9°C 86% 5.0 mph WSW8.0 kmh WSW -- 30.14 in1020.7 mb 0.00 in0.0 mm 0.00 in0.0 mm 0.00 in0.0 mm
05:35 AM 16.7°F-8.5°C 13.5°F-10.3°C 87% 5.0 mph WSW8.0 kmh WSW -- 30.15 in1021.0 mb 0.00 in0.0 mm 0.00 in0.0 mm 0.00 in0.0 mm
05:40 AM 16.9°F-8.4°C 13.6°F-10.2°C 87% 5.0 mph WSW8.0 kmh WSW 6.0 mph9.7 kmh 30.14 in1020.7 mb 0.00 in0.0 mm 0.00 in0.0 mm 0.00 in0.0 mm
05:45 AM 16.4°F-8.7°C 12.9°F-10.6°C 86% 5.0 mph WSW8.0 kmh WSW -- 30.14 in1020.7 mb 0.00 in0.0 mm 0.00 in0.0 mm 0.00 in0.0 mm
05:50 AM 16.4°F-8.7°C 12.9°F-10.6°C 86% 5.0 mph WSW8.0 kmh WSW -- 30.14 in1020.7 mb 0.00 in0.0 mm 0.00 in0.0 mm 0.00 in0.0 mm
05:55 AM 16.5°F-8.6°C 13.3°F-10.4°C 87% 6.0 mph WSW9.7 kmh WSW -- 30.14 in1020.7 mb 0.00 in0.0 mm 0.00 in0.0 mm 0.00 in0.0 mm
06:00 AM 16.2°F-8.8°C 12.9°F-10.6°C 87% 6.0 mph WSW9.7 kmh WSW -- 30.14 in1020.7 mb 0.00 in0.0 mm 0.00 in0.0 mm 0.00 in0.0 mm
06:05 AM 16.5°F-8.6°C 13.3°F-10.4°C 87% 3.0 mph WSW4.8 kmh WSW 6.0 mph9.7 kmh 30.14 in1020.7 mb 0.00 in0.0 mm 0.00 in0.0 mm 0.00 in0.0 mm
06:10 AM 15.9°F-8.9°C 12.6°F-10.8°C 86% 3.0 mph WSW4.8 kmh WSW -- 30.14 in1020.7 mb 0.00 in0.0 mm 0.00 in0.0 mm 0.00 in0.0 mm
06:15 AM 16.0°F-8.9°C 12.7°F-10.7°C 87% 3.0 mph WSW4.8 kmh WSW -- 30.14 in1020.7 mb 0.00 in0.0 mm 0.00 in0.0 mm 0.00 in0.0 mm
06:20 AM 15.7°F-9.1°C 12.4°F-10.9°C 87% 4.0 mph WSW6.4 kmh WSW -- 30.14 in1020.7 mb 0.00 in0.0 mm 0.00 in0.0 mm 0.00 in0.0 mm
06:25 AM 16.0°F-8.9°C 12.7°F-10.7°C 87% 3.0 mph WSW4.8 kmh WSW -- 30.15 in1021.0 mb 0.00 in0.0 mm 0.00 in0.0 mm 0.00 in0.0 mm
06:30 AM 15.9°F-8.9°C 12.7°F-10.7°C 87% 2.0 mph WSW3.2 kmh WSW 6.0 mph9.7 kmh 30.15 in1021.0 mb 0.00 in0.0 mm 0.00 in0.0 mm 0.00 in0.0 mm
06:35 AM 16.4°F-8.7°C 13.5°F-10.3°C 88% 3.0 mph WSW4.8 kmh WSW -- 30.15 in1021.0 mb 0.00 in0.0 mm 0.00 in0.0 mm 0.00 in0.0 mm
06:40 AM 16.1°F-8.8°C 12.9°F-10.6°C 87% 6.0 mph WSW9.7 kmh WSW -- 30.15 in1021.0 mb 0.00 in0.0 mm 0.00 in0.0 mm 0.00 in0.0 mm
06:45 AM 16.1°F-8.8°C 12.9°F-10.6°C 87% 4.0 mph WSW6.4 kmh WSW -- 30.15 in1021.0 mb 0.00 in0.0 mm 0.00 in0.0 mm 0.00 in0.0 mm
06:50 AM 15.6°F-9.1°C 12.4°F-10.9°C 87% 3.0 mph WSW4.8 kmh WSW -- 30.15 in1021.0 mb 0.00 in0.0 mm 0.00 in0.0 mm 0.00 in0.0 mm
06:55 AM 15.2°F-9.3°C 12.0°F-11.1°C 87% 2.0 mph WSW3.2 kmh WSW 5.0 mph8.0 kmh 30.15 in1021.0 mb 0.00 in0.0 mm 0.00 in0.0 mm 0.00 in0.0 mm
07:00 AM 16.5°F-8.6°C 13.8°F-10.1°C 89% 4.0 mph WSW6.4 kmh WSW -- 30.15 in1021.0 mb 0.00 in0.0 mm 0.00 in0.0 mm 0.00 in0.0 mm
07:05 AM 16.3°F-8.7°C 13.5°F-10.3°C 88% 5.0 mph WSW8.0 kmh WSW -- 30.15 in1021.0 mb 0.00 in0.0 mm 0.00 in0.0 mm 0.00 in0.0 mm
07:10 AM 15.7°F-9.1°C 12.4°F-10.9°C 87% 5.0 mph WSW8.0 kmh WSW -- 30.15 in1021.0 mb 0.00 in0.0 mm 0.00 in0.0 mm 0.00 in0.0 mm
07:15 AM 15.4°F-9.2°C 12.6°F-10.8°C 88% 5.0 mph WSW8.0 kmh WSW -- 30.15 in1021.0 mb 0.00 in0.0 mm 0.00 in0.0 mm 0.00 in0.0 mm
07:20 AM 16.1°F-8.8°C 13.3°F-10.4°C 88% 4.0 mph WSW6.4 kmh WSW 7.0 mph11.3 kmh 30.16 in1021.3 mb 0.00 in0.0 mm 0.00 in0.0 mm 0.00 in0.0 mm
07:25 AM 15.5°F-9.2°C 12.2°F-11.0°C 87% 5.0 mph WSW8.0 kmh WSW -- 30.16 in1021.3 mb 0.00 in0.0 mm 0.00 in0.0 mm 0.00 in0.0 mm
07:30 AM 15.4°F-9.2°C 12.6°F-10.8°C 88% 3.0 mph WSW4.8 kmh WSW -- 30.16 in1021.3 mb 0.00 in0.0 mm 0.00 in0.0 mm 0.00 in0.0 mm
07:35 AM 16.1°F-8.8°C 13.3°F-10.4°C 88% 3.0 mph WSW4.8 kmh WSW -- 30.16 in1021.3 mb 0.00 in0.0 mm 0.00 in0.0 mm 0.00 in0.0 mm
07:40 AM 15.9°F-8.9°C 12.7°F-10.7°C 87% 4.0 mph WSW6.4 kmh WSW -- 30.16 in1021.3 mb 0.00 in0.0 mm 0.00 in0.0 mm 0.00 in0.0 mm
07:45 AM 15.7°F-9.1°C 12.4°F-10.9°C 87% 3.0 mph WSW4.8 kmh WSW 5.0 mph8.0 kmh 30.16 in1021.3 mb 0.00 in0.0 mm 0.00 in0.0 mm 0.00 in0.0 mm
07:50 AM 15.7°F-9.1°C 12.7°F-10.7°C 88% 3.0 mph WSW4.8 kmh WSW -- 30.16 in1021.3 mb 0.00 in0.0 mm 0.00 in0.0 mm 0.00 in0.0 mm
07:55 AM 15.3°F-9.3°C 12.0°F-11.1°C 87% 5.0 mph WSW8.0 kmh WSW -- 30.17 in1021.7 mb 0.00 in0.0 mm 0.00 in0.0 mm 0.00 in0.0 mm
08:00 AM 15.9°F-8.9°C 13.3°F-10.4°C 89% 7.0 mph WSW11.3 kmh WSW -- 30.17 in1021.7 mb 0.00 in0.0 mm 0.00 in0.0 mm 0.00 in0.0 mm
08:05 AM 15.9°F-8.9°C 13.1°F-10.5°C 88% 5.0 mph WSW8.0 kmh WSW -- 30.17 in1021.7 mb 0.00 in0.0 mm 0.00 in0.0 mm 0.00 in0.0 mm
08:10 AM 16.6°F-8.6°C 13.8°F-10.1°C 89% 5.0 mph WSW8.0 kmh WSW 7.0 mph11.3 kmh 30.17 in1021.7 mb 0.00 in0.0 mm 0.00 in0.0 mm 0.00 in0.0 mm
08:15 AM 16.8°F-8.4°C 14.0°F-10.0°C 88% 2.0 mph WSW3.2 kmh WSW -- 30.17 in1021.7 mb 0.00 in0.0 mm 0.00 in0.0 mm 0.00 in0.0 mm
08:20 AM 16.9°F-8.4°C 14.0°F-10.0°C 88% 4.0 mph WSW6.4 kmh WSW -- 30.17 in1021.7 mb 0.00 in0.0 mm 0.00 in0.0 mm 0.00 in0.0 mm
08:25 AM 16.9°F-8.4°C 14.0°F-10.0°C 88% 5.0 mph WSW8.0 kmh WSW -- 30.17 in1021.7 mb 0.00 in0.0 mm 0.00 in0.0 mm 0.00 in0.0 mm
08:30 AM 16.8°F-8.4°C 14.0°F-10.0°C 88% 5.0 mph WSW8.0 kmh WSW -- 30.17 in1021.7 mb 0.00 in0.0 mm 0.00 in0.0 mm 0.00 in0.0 mm
08:35 AM 16.5°F-8.6°C 13.3°F-10.4°C 87% 6.0 mph WSW9.7 kmh WSW 7.0 mph11.3 kmh 30.17 in1021.7 mb 0.00 in0.0 mm 0.00 in0.0 mm 0.00 in0.0 mm
08:40 AM 16.5°F-8.6°C 13.6°F-10.2°C 88% 5.0 mph SW8.0 kmh SW -- 30.17 in1021.7 mb 0.00 in0.0 mm 0.00 in0.0 mm 0.00 in0.0 mm
08:45 AM 16.5°F-8.6°C 13.6°F-10.2°C 88% 4.0 mph SW6.4 kmh SW -- 30.18 in1022.0 mb 0.00 in0.0 mm 0.00 in0.0 mm 0.00 in0.0 mm
08:50 AM 16.3°F-8.7°C 13.5°F-10.3°C 88% 5.0 mph WSW8.0 kmh WSW -- 30.18 in1022.0 mb 0.00 in0.0 mm 0.00 in0.0 mm 0.00 in0.0 mm
08:55 AM 16.5°F-8.6°C 13.6°F-10.2°C 88% 6.0 mph WSW9.7 kmh WSW -- 30.18 in1022.0 mb 0.00 in0.0 mm 0.00 in0.0 mm 0.00 in0.0 mm
09:00 AM 16.2°F-8.8°C 12.9°F-10.6°C 87% 6.0 mph WSW9.7 kmh WSW 7.0 mph11.3 kmh 30.18 in1022.0 mb 0.00 in0.0 mm 0.00 in0.0 mm 0.00 in0.0 mm
09:05 AM 16.3°F-8.7°C 13.5°F-10.3°C 88% 6.0 mph WSW9.7 kmh WSW -- 30.18 in1022.0 mb 0.00 in0.0 mm 0.00 in0.0 mm 0.00 in0.0 mm
09:10 AM 16.6°F-8.6°C 13.6°F-10.2°C 88% 8.0 mph WSW12.9 kmh WSW -- 30.18 in1022.0 mb 0.00 in0.0 mm 0.00 in0.0 mm 0.00 in0.0 mm
09:15 AM 17.1°F-8.3°C 14.2°F-9.9°C 88% 6.0 mph WSW9.7 kmh WSW -- 30.18 in1022.0 mb 0.00 in0.0 mm 0.00 in0.0 mm 0.00 in0.0 mm
09:20 AM 17.1°F-8.3°C 14.2°F-9.9°C 88% 7.0 mph WSW11.3 kmh WSW -- 30.18 in1022.0 mb 0.00 in0.0 mm 0.00 in0.0 mm 0.00 in0.0 mm
09:25 AM 16.9°F-8.4°C 14.0°F-10.0°C 88% 6.0 mph WSW9.7 kmh WSW 8.0 mph12.9 kmh 30.18 in1022.0 mb 0.00 in0.0 mm 0.00 in0.0 mm 0.00 in0.0 mm
09:30 AM 17.1°F-8.3°C 13.8°F-10.1°C 87% 4.0 mph WSW6.4 kmh WSW -- 30.18 in1022.0 mb 0.00 in0.0 mm 0.00 in0.0 mm 0.00 in0.0 mm
09:35 AM 17.1°F-8.3°C 13.8°F-10.1°C 87% 5.0 mph WSW8.0 kmh WSW -- 30.18 in1022.0 mb 0.00 in0.0 mm 0.00 in0.0 mm 0.00 in0.0 mm
09:40 AM 17.5°F-8.1°C 14.5°F-9.7°C 88% 4.0 mph WSW6.4 kmh WSW -- 30.18 in1022.0 mb 0.00 in0.0 mm 0.00 in0.0 mm 0.00 in0.0 mm
09:45 AM 17.6°F-8.0°C 14.7°F-9.6°C 88% 4.0 mph WSW6.4 kmh WSW -- 30.18 in1022.0 mb 0.00 in0.0 mm 0.00 in0.0 mm 0.00 in0.0 mm
09:50 AM 17.8°F-7.9°C 14.5°F-9.7°C 87% 3.0 mph WSW4.8 kmh WSW 5.0 mph8.0 kmh 30.18 in1022.0 mb 0.00 in0.0 mm 0.00 in0.0 mm 0.00 in0.0 mm
09:55 AM 17.8°F-7.9°C 14.5°F-9.7°C 87% 4.0 mph WSW6.4 kmh WSW -- 30.18 in1022.0 mb 0.00 in0.0 mm 0.00 in0.0 mm 0.00 in0.0 mm
10:00 AM 17.8°F-7.9°C 14.5°F-9.7°C 87% 4.0 mph WSW6.4 kmh WSW -- 30.18 in1022.0 mb 0.00 in0.0 mm 0.00 in0.0 mm 0.00 in0.0 mm
10:05 AM 17.6°F-8.0°C 14.4°F-9.8°C 87% 3.0 mph WSW4.8 kmh WSW -- 30.18 in1022.0 mb 0.00 in0.0 mm 0.00 in0.0 mm 0.00 in0.0 mm
10:10 AM 17.9°F-7.8°C 15.1°F-9.4°C 88% 3.0 mph WSW4.8 kmh WSW -- 30.18 in1022.0 mb 0.00 in0.0 mm 0.00 in0.0 mm 0.00 in0.0 mm
10:15 AM 18.2°F-7.7°C 15.3°F-9.3°C 88% 5.0 mph WSW8.0 kmh WSW 6.0 mph9.7 kmh 30.18 in1022.0 mb 0.00 in0.0 mm 0.00 in0.0 mm 0.00 in0.0 mm
10:20 AM 18.5°F-7.5°C 15.6°F-9.1°C 88% 6.0 mph WSW9.7 kmh WSW -- 30.18 in1022.0 mb 0.00 in0.0 mm 0.00 in0.0 mm 0.00 in0.0 mm
10:25 AM 18.2°F-7.7°C 14.9°F-9.5°C 87% 7.0 mph WSW11.3 kmh WSW -- 30.18 in1022.0 mb 0.00 in0.0 mm 0.00 in0.0 mm 0.00 in0.0 mm
10:30 AM 17.9°F-7.8°C 14.7°F-9.6°C 87% 6.0 mph WSW9.7 kmh WSW -- 30.18 in1022.0 mb 0.00 in0.0 mm 0.00 in0.0 mm 0.00 in0.0 mm
10:35 AM 18.8°F-7.3°C 16.0°F-8.9°C 88% 4.0 mph WSW6.4 kmh WSW -- 30.18 in1022.0 mb 0.00 in0.0 mm 0.00 in0.0 mm 0.00 in0.0 mm
10:40 AM 19.0°F-7.2°C 16.2°F-8.8°C 88% 4.0 mph WSW6.4 kmh WSW 8.0 mph12.9 kmh 30.18 in1022.0 mb 0.00 in0.0 mm 0.00 in0.0 mm 0.00 in0.0 mm
10:45 AM 19.1°F-7.2°C 15.8°F-9.0°C 87% 5.0 mph WSW8.0 kmh WSW -- 30.18 in1022.0 mb 0.00 in0.0 mm 0.00 in0.0 mm 0.00 in0.0 mm
10:50 AM 18.9°F-7.3°C 15.4°F-9.2°C 86% 2.0 mph W3.2 kmh W -- 30.18 in1022.0 mb 0.00 in0.0 mm 0.00 in0.0 mm 0.00 in0.0 mm
10:55 AM 18.6°F-7.4°C 15.3°F-9.3°C 86% 3.0 mph WSW4.8 kmh WSW -- 30.18 in1022.0 mb 0.00 in0.0 mm 0.00 in0.0 mm 0.00 in0.0 mm
11:00 AM 18.6°F-7.4°C 15.4°F-9.2°C 87% 3.0 mph WSW4.8 kmh WSW -- 30.18 in1022.0 mb 0.00 in0.0 mm 0.00 in0.0 mm 0.00 in0.0 mm
11:05 AM 18.3°F-7.6°C 14.9°F-9.5°C 86% 5.0 mph WSW8.0 kmh WSW 7.0 mph11.3 kmh 30.18 in1022.0 mb 0.00 in0.0 mm 0.00 in0.0 mm 0.00 in0.0 mm
11:10 AM 18.8°F-7.3°C 15.6°F-9.1°C 87% 7.0 mph WSW11.3 kmh WSW -- 30.18 in1022.0 mb 0.00 in0.0 mm 0.00 in0.0 mm 0.00 in0.0 mm
11:15 AM 18.5°F-7.5°C 15.1°F-9.4°C 86% 6.0 mph WSW9.7 kmh WSW -- 30.18 in1022.0 mb 0.00 in0.0 mm 0.00 in0.0 mm 0.00 in0.0 mm
11:20 AM 17.3°F-8.2°C 13.5°F-10.3°C 85% 7.0 mph WSW11.3 kmh WSW -- 30.18 in1022.0 mb 0.00 in0.0 mm 0.00 in0.0 mm 0.00 in0.0 mm
11:25 AM 16.6°F-8.6°C 13.1°F-10.5°C 86% 6.0 mph WSW9.7 kmh WSW -- 30.18 in1022.0 mb 0.00 in0.0 mm 0.00 in0.0 mm 0.00 in0.0 mm
11:30 AM 16.7°F-8.5°C 13.3°F-10.4°C 86% 5.0 mph WSW8.0 kmh WSW 9.0 mph14.5 kmh 30.18 in1022.0 mb 0.00 in0.0 mm 0.00 in0.0 mm 0.00 in0.0 mm
11:35 AM 17.0°F-8.3°C 13.8°F-10.1°C 87% 5.0 mph WSW8.0 kmh WSW -- 30.18 in1022.0 mb 0.00 in0.0 mm 0.00 in0.0 mm 0.00 in0.0 mm
11:40 AM 17.5°F-8.1°C 14.2°F-9.9°C 87% 5.0 mph WSW8.0 kmh WSW -- 30.18 in1022.0 mb 0.00 in0.0 mm 0.00 in0.0 mm 0.00 in0.0 mm
11:45 AM 17.5°F-8.1°C 14.2°F-9.9°C 87% 6.0 mph W9.7 kmh W -- 30.18 in1022.0 mb 0.00 in0.0 mm 0.00 in0.0 mm 0.00 in0.0 mm
11:50 AM 18.0°F-7.8°C 14.7°F-9.6°C 87% 4.0 mph WSW6.4 kmh WSW -- 30.18 in1022.0 mb 0.00 in0.0 mm 0.00 in0.0 mm 0.00 in0.0 mm
11:55 AM 17.5°F-8.1°C 14.0°F-10.0°C 86% 5.0 mph W8.0 kmh W 7.0 mph11.3 kmh 30.19 in1022.4 mb 0.00 in0.0 mm 0.00 in0.0 mm 0.00 in0.0 mm
12:00 PM 17.3°F-8.2°C 14.0°F-10.0°C 87% 5.0 mph WSW8.0 kmh WSW -- 30.19 in1022.4 mb 0.00 in0.0 mm 0.00 in0.0 mm 0.00 in0.0 mm
12:05 PM 17.9°F-7.8°C 14.7°F-9.6°C 87% 6.0 mph WSW9.7 kmh WSW -- 30.18 in1022.0 mb 0.00 in0.0 mm 0.00 in0.0 mm 0.00 in0.0 mm
12:10 PM 17.9°F-7.8°C 14.5°F-9.7°C 86% 6.0 mph WSW9.7 kmh WSW -- 30.19 in1022.4 mb 0.00 in0.0 mm 0.00 in0.0 mm 0.00 in0.0 mm
12:15 PM 17.6°F-8.0°C 14.2°F-9.9°C 86% 5.0 mph WSW8.0 kmh WSW -- 30.19 in1022.4 mb 0.00 in0.0 mm 0.00 in0.0 mm 0.00 in0.0 mm
12:20 PM 18.3°F-7.6°C 15.1°F-9.4°C 87% 6.0 mph WSW9.7 kmh WSW 8.0 mph12.9 kmh 30.19 in1022.4 mb 0.00 in0.0 mm 0.00 in0.0 mm 0.00 in0.0 mm
12:25 PM 17.7°F-7.9°C 14.4°F-9.8°C 86% 6.0 mph WSW9.7 kmh WSW -- 30.19 in1022.4 mb 0.00 in0.0 mm 0.00 in0.0 mm 0.00 in0.0 mm
12:30 PM 18.0°F-7.8°C 14.7°F-9.6°C 87% 7.0 mph WSW11.3 kmh WSW -- 30.19 in1022.4 mb 0.00 in0.0 mm 0.00 in0.0 mm 0.00 in0.0 mm
12:35 PM 18.3°F-7.6°C 15.1°F-9.4°C 87% 6.0 mph WSW9.7 kmh WSW -- 30.19 in1022.4 mb 0.00 in0.0 mm 0.00 in0.0 mm 0.00 in0.0 mm
12:40 PM 18.8°F-7.3°C 15.6°F-9.1°C 87% 6.0 mph WSW9.7 kmh WSW -- 30.19 in1022.4 mb 0.00 in0.0 mm 0.00 in0.0 mm 0.00 in0.0 mm
12:45 PM 18.0°F-7.8°C 14.5°F-9.7°C 86% 6.0 mph WSW9.7 kmh WSW 7.0 mph11.3 kmh 30.19 in1022.4 mb 0.00 in0.0 mm 0.00 in0.0 mm 0.00 in0.0 mm
12:50 PM 18.2°F-7.7°C 14.9°F-9.5°C 87% 6.0 mph WSW9.7 kmh WSW -- 30.20 in1022.7 mb 0.00 in0.0 mm 0.00 in0.0 mm 0.00 in0.0 mm
12:55 PM 18.3°F-7.6°C 15.1°F-9.4°C 87% 5.0 mph WSW8.0 kmh WSW -- 30.19 in1022.4 mb 0.00 in0.0 mm 0.00 in0.0 mm 0.00 in0.0 mm
01:00 PM 18.4°F-7.6°C 15.1°F-9.4°C 87% 5.0 mph WSW8.0 kmh WSW -- 30.19 in1022.4 mb 0.00 in0.0 mm 0.00 in0.0 mm 0.00 in0.0 mm
01:05 PM 18.9°F-7.3°C 15.6°F-9.1°C 87% 5.0 mph WSW8.0 kmh WSW -- 30.19 in1022.4 mb 0.00 in0.0 mm 0.00 in0.0 mm 0.00 in0.0 mm
01:10 PM 18.3°F-7.6°C 14.9°F-9.5°C 86% 6.0 mph WSW9.7 kmh WSW 7.0 mph11.3 kmh 30.19 in1022.4 mb 0.00 in0.0 mm 0.00 in0.0 mm 0.00 in0.0 mm
01:15 PM 18.2°F-7.7°C 14.9°F-9.5°C 87% 7.0 mph WSW11.3 kmh WSW -- 30.19 in1022.4 mb 0.00 in0.0 mm 0.00 in0.0 mm 0.00 in0.0 mm
01:20 PM 18.6°F-7.4°C 15.4°F-9.2°C 87% 5.0 mph WSW8.0 kmh WSW -- 30.19 in1022.4 mb 0.00 in0.0 mm 0.00 in0.0 mm 0.00 in0.0 mm
01:25 PM 18.3°F-7.6°C 14.9°F-9.5°C 86% 5.0 mph WSW8.0 kmh WSW -- 30.19 in1022.4 mb 0.00 in0.0 mm 0.00 in0.0 mm 0.00 in0.0 mm
01:30 PM 17.9°F-7.8°C 14.5°F-9.7°C 86% 6.0 mph WSW9.7 kmh WSW -- 30.19 in1022.4 mb 0.00 in0.0 mm 0.00 in0.0 mm 0.00 in0.0 mm
01:35 PM 17.7°F-7.9°C 14.4°F-9.8°C 86% 6.0 mph WSW9.7 kmh WSW 8.0 mph12.9 kmh 30.19 in1022.4 mb 0.00 in0.0 mm 0.00 in0.0 mm 0.00 in0.0 mm
01:40 PM 17.3°F-8.2°C 13.8°F-10.1°C 86% 4.0 mph WSW6.4 kmh WSW -- 30.19 in1022.4 mb 0.00 in0.0 mm 0.00 in0.0 mm 0.00 in0.0 mm
01:45 PM 17.3°F-8.2°C 14.0°F-10.0°C 87% 4.0 mph WSW6.4 kmh WSW -- 30.19 in1022.4 mb 0.00 in0.0 mm 0.00 in0.0 mm 0.00 in0.0 mm
01:50 PM 16.6°F-8.6°C 13.1°F-10.5°C 86% 7.0 mph WSW11.3 kmh WSW -- 30.19 in1022.4 mb 0.00 in0.0 mm 0.00 in0.0 mm 0.00 in0.0 mm
01:55 PM 17.1°F-8.3°C 13.8°F-10.1°C 87% 4.0 mph WSW6.4 kmh WSW -- 30.19 in1022.4 mb 0.00 in0.0 mm 0.00 in0.0 mm 0.00 in0.0 mm
02:00 PM 16.5°F-8.6°C 13.1°F-10.5°C 86% 4.0 mph SW6.4 kmh SW 7.0 mph11.3 kmh 30.19 in1022.4 mb 0.00 in0.0 mm 0.00 in0.0 mm 0.00 in0.0 mm
02:05 PM 16.6°F-8.6°C 13.3°F-10.4°C 87% 5.0 mph WSW8.0 kmh WSW -- 30.19 in1022.4 mb 0.00 in0.0 mm 0.00 in0.0 mm 0.00 in0.0 mm
02:10 PM 16.4°F-8.7°C 12.9°F-10.6°C 86% 8.0 mph SW12.9 kmh SW -- 30.19 in1022.4 mb 0.00 in0.0 mm 0.00 in0.0 mm 0.00 in0.0 mm
02:15 PM 16.4°F-8.7°C 13.1°F-10.5°C 87% 7.0 mph WSW11.3 kmh WSW -- 30.20 in1022.7 mb 0.00 in0.0 mm 0.00 in0.0 mm 0.00 in0.0 mm
02:20 PM 16.1°F-8.8°C 12.9°F-10.6°C 87% 5.0 mph SW8.0 kmh SW -- 30.20 in1022.7 mb 0.00 in0.0 mm 0.00 in0.0 mm 0.00 in0.0 mm
02:25 PM 16.1°F-8.8°C 12.9°F-10.6°C 87% 8.0 mph SW12.9 kmh SW 8.0 mph12.9 kmh 30.20 in1022.7 mb 0.00 in0.0 mm 0.00 in0.0 mm 0.00 in0.0 mm
02:30 PM 16.2°F-8.8°C 12.9°F-10.6°C 87% 4.0 mph WSW6.4 kmh WSW -- 30.20 in1022.7 mb 0.00 in0.0 mm 0.00 in0.0 mm 0.00 in0.0 mm
02:35 PM 16.6°F-8.6°C 13.3°F-10.4°C 87% 7.0 mph WSW11.3 kmh WSW -- 30.20 in1022.7 mb 0.00 in0.0 mm 0.00 in0.0 mm 0.00 in0.0 mm
02:40 PM 16.4°F-8.7°C 13.1°F-10.5°C 87% 9.0 mph WSW14.5 kmh WSW -- 30.20 in1022.7 mb 0.00 in0.0 mm 0.00 in0.0 mm 0.00 in0.0 mm
02:45 PM 17.5°F-8.1°C 14.5°F-9.7°C 88% 7.0 mph WSW11.3 kmh WSW -- 30.20 in1022.7 mb 0.00 in0.0 mm 0.00 in0.0 mm 0.00 in0.0 mm
02:50 PM 17.0°F-8.3°C 13.8°F-10.1°C 87% 5.0 mph WSW8.0 kmh WSW 10.0 mph16.1 kmh 30.20 in1022.7 mb 0.00 in0.0 mm 0.00 in0.0 mm 0.00 in0.0 mm
02:55 PM 16.3°F-8.7°C 12.9°F-10.6°C 86% 8.0 mph WSW12.9 kmh WSW -- 30.20 in1022.7 mb 0.00 in0.0 mm 0.00 in0.0 mm 0.00 in0.0 mm
03:00 PM 15.7°F-9.1°C 12.2°F-11.0°C 86% 8.0 mph SW12.9 kmh SW -- 30.20 in1022.7 mb 0.00 in0.0 mm 0.00 in0.0 mm 0.00 in0.0 mm
03:05 PM 15.8°F-9.0°C 12.6°F-10.8°C 87% 6.0 mph WSW9.7 kmh WSW -- 30.20 in1022.7 mb 0.00 in0.0 mm 0.00 in0.0 mm 0.00 in0.0 mm
03:10 PM 15.7°F-9.1°C 12.4°F-10.9°C 87% 7.0 mph SW11.3 kmh SW -- 30.20 in1022.7 mb 0.00 in0.0 mm 0.00 in0.0 mm 0.00 in0.0 mm
03:15 PM 16.1°F-8.8°C 12.9°F-10.6°C 87% 6.0 mph WSW9.7 kmh WSW 9.0 mph14.5 kmh 30.20 in1022.7 mb 0.00 in0.0 mm 0.00 in0.0 mm 0.00 in0.0 mm
03:20 PM 16.5°F-8.6°C 13.6°F-10.2°C 88% 9.0 mph WSW14.5 kmh WSW -- 30.20 in1022.7 mb 0.00 in0.0 mm 0.00 in0.0 mm 0.00 in0.0 mm
03:25 PM 16.2°F-8.8°C 12.9°F-10.6°C 87% 7.0 mph WSW11.3 kmh WSW -- 30.20 in1022.7 mb 0.00 in0.0 mm 0.00 in0.0 mm 0.00 in0.0 mm
03:30 PM 16.6°F-8.6°C 13.3°F-10.4°C 87% 6.0 mph SW9.7 kmh SW -- 30.20 in1022.7 mb 0.00 in0.0 mm 0.00 in0.0 mm 0.00 in0.0 mm
03:35 PM 16.5°F-8.6°C 13.3°F-10.4°C 87% 5.0 mph WSW8.0 kmh WSW -- 30.20 in1022.7 mb 0.00 in0.0 mm 0.00 in0.0 mm 0.00 in0.0 mm
03:40 PM 16.6°F-8.6°C 13.3°F-10.4°C 87% 4.0 mph SW6.4 kmh SW 7.0 mph11.3 kmh 30.21 in1023.0 mb 0.00 in0.0 mm 0.00 in0.0 mm 0.00 in0.0 mm
03:45 PM 16.5°F-8.6°C 13.3°F-10.4°C 87% 8.0 mph WSW12.9 kmh WSW -- 30.20 in1022.7 mb 0.00 in0.0 mm 0.00 in0.0 mm 0.00 in0.0 mm
03:50 PM 16.8°F-8.4°C 14.0°F-10.0°C 88% 5.0 mph W8.0 kmh W -- 30.21 in1023.0 mb 0.00 in0.0 mm 0.00 in0.0 mm 0.00 in0.0 mm
03:55 PM 17.6°F-8.0°C 14.7°F-9.6°C 88% 4.0 mph WSW6.4 kmh WSW -- 30.21 in1023.0 mb 0.00 in0.0 mm 0.00 in0.0 mm 0.00 in0.0 mm
04:00 PM 17.9°F-7.8°C 14.7°F-9.6°C 87% 4.0 mph WSW6.4 kmh WSW -- 30.21 in1023.0 mb 0.00 in0.0 mm 0.00 in0.0 mm 0.00 in0.0 mm
04:05 PM 18.1°F-7.7°C 14.9°F-9.5°C 87% 5.0 mph WSW8.0 kmh WSW 7.0 mph11.3 kmh 30.21 in1023.0 mb 0.00 in0.0 mm 0.00 in0.0 mm 0.00 in0.0 mm
04:10 PM 17.3°F-8.2°C 14.0°F-10.0°C 87% 4.0 mph WSW6.4 kmh WSW -- 30.21 in1023.0 mb 0.00 in0.0 mm 0.00 in0.0 mm 0.00 in0.0 mm
04:15 PM 17.6°F-8.0°C 14.7°F-9.6°C 88% 5.0 mph WSW8.0 kmh WSW -- 30.21 in1023.0 mb 0.00 in0.0 mm 0.00 in0.0 mm 0.00 in0.0 mm
04:20 PM 17.7°F-7.9°C 14.9°F-9.5°C 88% 6.0 mph WSW9.7 kmh WSW -- 30.21 in1023.0 mb 0.00 in0.0 mm 0.00 in0.0 mm 0.00 in0.0 mm
04:25 PM 18.2°F-7.7°C 14.9°F-9.5°C 87% 7.0 mph WSW11.3 kmh WSW -- 30.21 in1023.0 mb 0.00 in0.0 mm 0.00 in0.0 mm 0.00 in0.0 mm
04:30 PM 18.2°F-7.7°C 15.3°F-9.3°C 88% 7.0 mph WSW11.3 kmh WSW 8.0 mph12.9 kmh 30.21 in1023.0 mb 0.00 in0.0 mm 0.00 in0.0 mm 0.00 in0.0 mm
04:35 PM 18.5°F-7.5°C 15.6°F-9.1°C 88% 7.0 mph WSW11.3 kmh WSW -- 30.21 in1023.0 mb 0.00 in0.0 mm 0.00 in0.0 mm 0.00 in0.0 mm
04:40 PM 18.7°F-7.4°C 15.8°F-9.0°C 88% 6.0 mph W9.7 kmh W -- 30.21 in1023.0 mb 0.00 in0.0 mm 0.00 in0.0 mm 0.00 in0.0 mm
04:45 PM 18.2°F-7.7°C 14.9°F-9.5°C 87% 7.0 mph WSW11.3 kmh WSW -- 30.21 in1023.0 mb 0.00 in0.0 mm 0.00 in0.0 mm 0.00 in0.0 mm
04:50 PM 17.9°F-7.8°C 14.7°F-9.6°C 87% 3.0 mph WSW4.8 kmh WSW -- 30.21 in1023.0 mb 0.00 in0.0 mm 0.00 in0.0 mm 0.00 in0.0 mm
04:55 PM 17.6°F-8.0°C 14.4°F-9.8°C 87% 3.0 mph WSW4.8 kmh WSW 7.0 mph11.3 kmh 30.21 in1023.0 mb 0.00 in0.0 mm 0.00 in0.0 mm 0.00 in0.0 mm
05:00 PM 16.4°F-8.7°C 12.9°F-10.6°C 86% 6.0 mph WSW9.7 kmh WSW -- 30.21 in1023.0 mb 0.00 in0.0 mm 0.00 in0.0 mm 0.00 in0.0 mm
05:05 PM 16.1°F-8.8°C 12.9°F-10.6°C 87% 8.0 mph SW12.9 kmh SW -- 30.21 in1023.0 mb 0.00 in0.0 mm 0.00 in0.0 mm 0.00 in0.0 mm
05:10 PM 16.1°F-8.8°C 13.3°F-10.4°C 88% 6.0 mph WSW9.7 kmh WSW -- 30.21 in1023.0 mb 0.00 in0.0 mm 0.00 in0.0 mm 0.00 in0.0 mm
05:15 PM 16.2°F-8.8°C 13.3°F-10.4°C 88% 8.0 mph WSW12.9 kmh WSW -- 30.21 in1023.0 mb 0.00 in0.0 mm 0.00 in0.0 mm 0.00 in0.0 mm
05:20 PM 15.9°F-8.9°C 12.7°F-10.7°C 87% 9.0 mph WSW14.5 kmh WSW 11.0 mph17.7 kmh 30.21 in1023.0 mb 0.00 in0.0 mm 0.00 in0.0 mm 0.00 in0.0 mm
05:25 PM 16.1°F-8.8°C 13.3°F-10.4°C 88% 7.0 mph WSW11.3 kmh WSW -- 30.21 in1023.0 mb 0.00 in0.0 mm 0.00 in0.0 mm 0.00 in0.0 mm
05:30 PM 16.1°F-8.8°C 13.3°F-10.4°C 88% 8.0 mph SW12.9 kmh SW -- 30.21 in1023.0 mb 0.00 in0.0 mm 0.00 in0.0 mm 0.00 in0.0 mm
05:35 PM 16.3°F-8.7°C 13.5°F-10.3°C 88% 8.0 mph WSW12.9 kmh WSW -- 30.21 in1023.0 mb 0.00 in0.0 mm 0.00 in0.0 mm 0.00 in0.0 mm
05:40 PM 17.1°F-8.3°C 14.4°F-9.8°C 89% 8.0 mph W12.9 kmh W -- 30.21 in1023.0 mb 0.00 in0.0 mm 0.00 in0.0 mm 0.00 in0.0 mm
05:45 PM 16.8°F-8.4°C 13.6°F-10.2°C 87% 8.0 mph WSW12.9 kmh WSW 11.0 mph17.7 kmh 30.21 in1023.0 mb 0.00 in0.0 mm 0.00 in0.0 mm 0.00 in0.0 mm
05:50 PM 16.8°F-8.4°C 14.0°F-10.0°C 88% 5.0 mph W8.0 kmh W -- 30.22 in1023.4 mb 0.00 in0.0 mm 0.00 in0.0 mm 0.00 in0.0 mm
05:55 PM 16.5°F-8.6°C 13.6°F-10.2°C 88% 8.0 mph WSW12.9 kmh WSW -- 30.21 in1023.0 mb 0.00 in0.0 mm 0.00 in0.0 mm 0.00 in0.0 mm
06:00 PM 16.3°F-8.7°C 13.1°F-10.5°C 87% 7.0 mph WSW11.3 kmh WSW -- 30.21 in1023.0 mb 0.00 in0.0 mm 0.00 in0.0 mm 0.00 in0.0 mm
06:05 PM 16.3°F-8.7°C 13.5°F-10.3°C 88% 6.0 mph WSW9.7 kmh WSW -- 30.22 in1023.4 mb 0.00 in0.0 mm 0.00 in0.0 mm 0.00 in0.0 mm
06:10 PM 16.6°F-8.6°C 13.6°F-10.2°C 88% 8.0 mph WSW12.9 kmh WSW 10.0 mph16.1 kmh 30.21 in1023.0 mb 0.00 in0.0 mm 0.00 in0.0 mm 0.00 in0.0 mm
06:15 PM 16.9°F-8.4°C 14.0°F-10.0°C 88% 5.0 mph WSW8.0 kmh WSW -- 30.22 in1023.4 mb 0.00 in0.0 mm 0.00 in0.0 mm 0.00 in0.0 mm
06:20 PM 16.7°F-8.5°C 13.5°F-10.3°C 87% 6.0 mph SW9.7 kmh SW -- 30.22 in1023.4 mb 0.00 in0.0 mm 0.00 in0.0 mm 0.00 in0.0 mm
06:25 PM 16.0°F-8.9°C 12.7°F-10.7°C 87% 6.0 mph WSW9.7 kmh WSW -- 30.22 in1023.4 mb 0.00 in0.0 mm 0.00 in0.0 mm 0.00 in0.0 mm
06:30 PM 16.2°F-8.8°C 12.9°F-10.6°C 87% 9.0 mph WSW14.5 kmh WSW -- 30.22 in1023.4 mb 0.00 in0.0 mm 0.00 in0.0 mm 0.00 in0.0 mm
06:35 PM 16.3°F-8.7°C 13.5°F-10.3°C 88% 5.0 mph WSW8.0 kmh WSW 11.0 mph17.7 kmh 30.22 in1023.4 mb 0.00 in0.0 mm 0.00 in0.0 mm 0.00 in0.0 mm
06:40 PM 16.8°F-8.4°C 14.0°F-10.0°C 88% 7.0 mph W11.3 kmh W -- 30.22 in1023.4 mb 0.00 in0.0 mm 0.00 in0.0 mm 0.00 in0.0 mm
06:45 PM 17.1°F-8.3°C 14.2°F-9.9°C 88% 5.0 mph WSW8.0 kmh WSW -- 30.22 in1023.4 mb 0.00 in0.0 mm 0.00 in0.0 mm 0.00 in0.0 mm
06:50 PM 16.8°F-8.4°C 13.6°F-10.2°C 87% 5.0 mph WSW8.0 kmh WSW -- 30.22 in1023.4 mb 0.00 in0.0 mm 0.00 in0.0 mm 0.00 in0.0 mm
06:55 PM 16.5°F-8.6°C 13.3°F-10.4°C 87% 7.0 mph W11.3 kmh W -- 30.22 in1023.4 mb 0.00 in0.0 mm 0.00 in0.0 mm 0.00 in0.0 mm
07:00 PM 16.3°F-8.7°C 13.1°F-10.5°C 87% 7.0 mph W11.3 kmh W 9.0 mph14.5 kmh 30.22 in1023.4 mb 0.00 in0.0 mm 0.00 in0.0 mm 0.00 in0.0 mm
07:05 PM 16.7°F-8.5°C 13.8°F-10.1°C 88% 9.0 mph W14.5 kmh W -- 30.22 in1023.4 mb 0.00 in0.0 mm 0.00 in0.0 mm 0.00 in0.0 mm
07:10 PM 16.8°F-8.4°C 14.0°F-10.0°C 88% 9.0 mph WSW14.5 kmh WSW -- 30.22 in1023.4 mb 0.00 in0.0 mm 0.00 in0.0 mm 0.00 in0.0 mm
07:15 PM 17.4°F-8.1°C 14.5°F-9.7°C 88% 5.0 mph SW8.0 kmh SW -- 30.22 in1023.4 mb 0.00 in0.0 mm 0.00 in0.0 mm 0.00 in0.0 mm
07:20 PM 17.2°F-8.2°C 14.0°F-10.0°C 87% 6.0 mph W9.7 kmh W -- 30.22 in1023.4 mb 0.00 in0.0 mm 0.00 in0.0 mm 0.00 in0.0 mm
07:25 PM 16.7°F-8.5°C 13.5°F-10.3°C 87% 4.0 mph WSW6.4 kmh WSW 11.0 mph17.7 kmh 30.22 in1023.4 mb 0.00 in0.0 mm 0.00 in0.0 mm 0.00 in0.0 mm
07:30 PM 16.9°F-8.4°C 14.0°F-10.0°C 88% 8.0 mph W12.9 kmh W -- 30.22 in1023.4 mb 0.00 in0.0 mm 0.00 in0.0 mm 0.00 in0.0 mm
07:35 PM 17.9°F-7.8°C 15.1°F-9.4°C 88% 9.0 mph W14.5 kmh W -- 30.22 in1023.4 mb 0.00 in0.0 mm 0.00 in0.0 mm 0.00 in0.0 mm
07:40 PM 17.3°F-8.2°C 14.0°F-10.0°C 87% 5.0 mph WSW8.0 kmh WSW -- 30.22 in1023.4 mb 0.00 in0.0 mm 0.00 in0.0 mm 0.00 in0.0 mm
07:45 PM 16.8°F-8.4°C 13.6°F-10.2°C 87% 5.0 mph WSW8.0 kmh WSW -- 30.22 in1023.4 mb 0.00 in0.0 mm 0.00 in0.0 mm 0.00 in0.0 mm
07:50 PM 17.2°F-8.2°C 14.0°F-10.0°C 87% 6.0 mph SW9.7 kmh SW 8.0 mph12.9 kmh 30.22 in1023.4 mb 0.00 in0.0 mm 0.00 in0.0 mm 0.00 in0.0 mm
07:55 PM 17.2°F-8.2°C 14.0°F-10.0°C 87% 5.0 mph WSW8.0 kmh WSW -- 30.22 in1023.4 mb 0.00 in0.0 mm 0.00 in0.0 mm 0.00 in0.0 mm
08:00 PM 16.9°F-8.4°C 13.6°F-10.2°C 87% 5.0 mph W8.0 kmh W -- 30.23 in1023.7 mb 0.00 in0.0 mm 0.00 in0.0 mm 0.00 in0.0 mm
08:05 PM 17.3°F-8.2°C 14.4°F-9.8°C 88% 6.0 mph WSW9.7 kmh WSW -- 30.23 in1023.7 mb 0.00 in0.0 mm 0.00 in0.0 mm 0.00 in0.0 mm
08:10 PM 17.0°F-8.3°C 13.8°F-10.1°C 87% 6.0 mph WSW9.7 kmh WSW -- 30.23 in1023.7 mb 0.00 in0.0 mm 0.00 in0.0 mm 0.00 in0.0 mm
08:15 PM 16.8°F-8.4°C 13.6°F-10.2°C 87% 5.0 mph WSW8.0 kmh WSW 9.0 mph14.5 kmh 30.23 in1023.7 mb 0.00 in0.0 mm 0.00 in0.0 mm 0.00 in0.0 mm
08:20 PM 16.7°F-8.5°C 13.5°F-10.3°C 87% 7.0 mph WSW11.3 kmh WSW -- 30.23 in1023.7 mb 0.00 in0.0 mm 0.00 in0.0 mm 0.00 in0.0 mm
08:25 PM 16.7°F-8.5°C 13.5°F-10.3°C 87% 5.0 mph WSW8.0 kmh WSW -- 30.23 in1023.7 mb 0.00 in0.0 mm 0.00 in0.0 mm 0.00 in0.0 mm
08:30 PM 16.9°F-8.4°C 14.0°F-10.0°C 88% 8.0 mph WSW12.9 kmh WSW -- 30.23 in1023.7 mb 0.00 in0.0 mm 0.00 in0.0 mm 0.00 in0.0 mm
08:35 PM 16.6°F-8.6°C 13.3°F-10.4°C 87% 7.0 mph WSW11.3 kmh WSW -- 30.23 in1023.7 mb 0.00 in0.0 mm 0.00 in0.0 mm 0.00 in0.0 mm
08:40 PM 16.0°F-8.9°C 12.6°F-10.8°C 86% 6.0 mph WSW9.7 kmh WSW 11.0 mph17.7 kmh 30.23 in1023.7 mb 0.00 in0.0 mm 0.00 in0.0 mm 0.00 in0.0 mm
08:45 PM 15.4°F-9.2°C 12.2°F-11.0°C 87% 6.0 mph WSW9.7 kmh WSW -- 30.23 in1023.7 mb 0.00 in0.0 mm 0.00 in0.0 mm 0.00 in0.0 mm
08:50 PM 15.6°F-9.1°C 12.7°F-10.7°C 88% 7.0 mph WSW11.3 kmh WSW -- 30.23 in1023.7 mb 0.00 in0.0 mm 0.00 in0.0 mm 0.00 in0.0 mm
08:55 PM 15.8°F-9.0°C 12.9°F-10.6°C 88% 6.0 mph WSW9.7 kmh WSW -- 30.23 in1023.7 mb 0.00 in0.0 mm 0.00 in0.0 mm 0.00 in0.0 mm
09:00 PM 15.7°F-9.1°C 12.7°F-10.7°C 88% 7.0 mph WSW11.3 kmh WSW -- 30.23 in1023.7 mb 0.00 in0.0 mm 0.00 in0.0 mm 0.00 in0.0 mm
09:05 PM 15.8°F-9.0°C 12.9°F-10.6°C 88% 5.0 mph SW8.0 kmh SW 10.0 mph16.1 kmh 30.23 in1023.7 mb 0.00 in0.0 mm 0.00 in0.0 mm 0.00 in0.0 mm
09:10 PM 15.7°F-9.1°C 12.7°F-10.7°C 88% 5.0 mph WSW8.0 kmh WSW -- 30.23 in1023.7 mb 0.00 in0.0 mm 0.00 in0.0 mm 0.00 in0.0 mm
09:15 PM 16.0°F-8.9°C 13.1°F-10.5°C 88% 8.0 mph WSW12.9 kmh WSW -- 30.23 in1023.7 mb 0.00 in0.0 mm 0.00 in0.0 mm 0.00 in0.0 mm
09:20 PM 16.2°F-8.8°C 13.3°F-10.4°C 88% 9.0 mph WSW14.5 kmh WSW -- 30.23 in1023.7 mb 0.00 in0.0 mm 0.00 in0.0 mm 0.00 in0.0 mm
09:25 PM 16.0°F-8.9°C 12.7°F-10.7°C 87% 5.0 mph WSW8.0 kmh WSW -- 30.23 in1023.7 mb 0.00 in0.0 mm 0.00 in0.0 mm 0.00 in0.0 mm
09:30 PM 16.4°F-8.7°C 13.6°F-10.2°C 89% 10.0 mph W16.1 kmh W 11.0 mph17.7 kmh 30.23 in1023.7 mb 0.00 in0.0 mm 0.00 in0.0 mm 0.00 in0.0 mm
09:35 PM 17.4°F-8.1°C 14.7°F-9.6°C 89% 8.0 mph W12.9 kmh W -- 30.23 in1023.7 mb 0.00 in0.0 mm 0.00 in0.0 mm 0.00 in0.0 mm
09:40 PM 17.1°F-8.3°C 13.6°F-10.2°C 86% 9.0 mph W14.5 kmh W -- 30.23 in1023.7 mb 0.00 in0.0 mm 0.00 in0.0 mm 0.00 in0.0 mm
09:45 PM 16.1°F-8.8°C 12.7°F-10.7°C 86% 6.0 mph WSW9.7 kmh WSW -- 30.24 in1024.0 mb 0.00 in0.0 mm 0.00 in0.0 mm 0.00 in0.0 mm
09:50 PM 15.2°F-9.3°C 12.0°F-11.1°C 87% 7.0 mph WSW11.3 kmh WSW -- 30.24 in1024.0 mb 0.00 in0.0 mm 0.00 in0.0 mm 0.00 in0.0 mm
09:55 PM 16.2°F-8.8°C 13.5°F-10.3°C 89% 9.0 mph WSW14.5 kmh WSW 11.0 mph17.7 kmh 30.23 in1023.7 mb 0.00 in0.0 mm 0.00 in0.0 mm 0.00 in0.0 mm
10:00 PM 17.4°F-8.1°C 14.5°F-9.7°C 88% 10.0 mph WSW16.1 kmh WSW -- 30.24 in1024.0 mb 0.00 in0.0 mm 0.00 in0.0 mm 0.00 in0.0 mm
10:05 PM 18.0°F-7.8°C 14.7°F-9.6°C 87% 9.0 mph W14.5 kmh W -- 30.24 in1024.0 mb 0.00 in0.0 mm 0.00 in0.0 mm 0.00 in0.0 mm
10:10 PM 17.1°F-8.3°C 13.6°F-10.2°C 86% 7.0 mph WSW11.3 kmh WSW -- 30.24 in1024.0 mb 0.00 in0.0 mm 0.00 in0.0 mm 0.00 in0.0 mm
10:15 PM 16.4°F-8.7°C 12.9°F-10.6°C 86% 6.0 mph WSW9.7 kmh WSW -- 30.24 in1024.0 mb 0.00 in0.0 mm 0.00 in0.0 mm 0.00 in0.0 mm
10:20 PM 16.3°F-8.7°C 13.1°F-10.5°C 87% 8.0 mph SW12.9 kmh SW 11.0 mph17.7 kmh 30.24 in1024.0 mb 0.00 in0.0 mm 0.00 in0.0 mm 0.00 in0.0 mm
10:25 PM 16.2°F-8.8°C 12.9°F-10.6°C 87% 9.0 mph WSW14.5 kmh WSW -- 30.24 in1024.0 mb 0.00 in0.0 mm 0.00 in0.0 mm 0.00 in0.0 mm
10:30 PM 16.0°F-8.9°C 12.7°F-10.7°C 87% 5.0 mph WSW8.0 kmh WSW -- 30.24 in1024.0 mb 0.00 in0.0 mm 0.00 in0.0 mm 0.00 in0.0 mm
10:35 PM 16.3°F-8.7°C 13.5°F-10.3°C 88% 5.0 mph WSW8.0 kmh WSW -- 30.24 in1024.0 mb 0.00 in0.0 mm 0.00 in0.0 mm 0.00 in0.0 mm
10:40 PM 16.3°F-8.7°C 13.1°F-10.5°C 87% 6.0 mph SW9.7 kmh SW -- 30.24 in1024.0 mb 0.00 in0.0 mm 0.00 in0.0 mm 0.00 in0.0 mm
10:45 PM 16.1°F-8.8°C 12.9°F-10.6°C 87% 9.0 mph WSW14.5 kmh WSW 11.0 mph17.7 kmh 30.24 in1024.0 mb 0.00 in0.0 mm 0.00 in0.0 mm 0.00 in0.0 mm
10:50 PM 16.5°F-8.6°C 13.3°F-10.4°C 87% 5.0 mph WSW8.0 kmh WSW -- 30.24 in1024.0 mb 0.00 in0.0 mm 0.00 in0.0 mm 0.00 in0.0 mm
10:55 PM 15.7°F-9.1°C 12.2°F-11.0°C 86% 7.0 mph WSW11.3 kmh WSW -- 30.24 in1024.0 mb 0.00 in0.0 mm 0.00 in0.0 mm 0.00 in0.0 mm
11:00 PM 16.1°F-8.8°C 12.9°F-10.6°C 87% 7.0 mph WSW11.3 kmh WSW -- 30.24 in1024.0 mb 0.00 in0.0 mm 0.00 in0.0 mm 0.00 in0.0 mm
11:05 PM 16.1°F-8.8°C 12.9°F-10.6°C 87% 8.0 mph WSW12.9 kmh WSW -- 30.24 in1024.0 mb 0.00 in0.0 mm 0.00 in0.0 mm 0.00 in0.0 mm
11:10 PM 16.1°F-8.8°C 12.9°F-10.6°C 87% 9.0 mph WSW14.5 kmh WSW 11.0 mph17.7 kmh 30.24 in1024.0 mb 0.00 in0.0 mm 0.00 in0.0 mm 0.00 in0.0 mm
11:15 PM 17.0°F-8.3°C 14.4°F-9.8°C 89% 7.0 mph W11.3 kmh W -- 30.24 in1024.0 mb 0.00 in0.0 mm 0.00 in0.0 mm 0.00 in0.0 mm
11:20 PM 17.2°F-8.2°C 14.0°F-10.0°C 87% 6.0 mph WSW9.7 kmh WSW -- 30.24 in1024.0 mb 0.00 in0.0 mm 0.00 in0.0 mm 0.00 in0.0 mm
11:25 PM 17.3°F-8.2°C 14.0°F-10.0°C 87% 8.0 mph WSW12.9 kmh WSW -- 30.24 in1024.0 mb 0.00 in0.0 mm 0.00 in0.0 mm 0.00 in0.0 mm
11:30 PM 17.0°F-8.3°C 13.8°F-10.1°C 87% 7.0 mph WSW11.3 kmh WSW -- 30.24 in1024.0 mb 0.00 in0.0 mm 0.00 in0.0 mm 0.00 in0.0 mm
11:35 PM 16.8°F-8.4°C 13.6°F-10.2°C 87% 7.0 mph WSW11.3 kmh WSW 12.0 mph19.3 kmh 30.24 in1024.0 mb 0.00 in0.0 mm 0.00 in0.0 mm 0.00 in0.0 mm
11:40 PM 16.7°F-8.5°C 13.5°F-10.3°C 87% 6.0 mph W9.7 kmh W -- 30.24 in1024.0 mb 0.00 in0.0 mm 0.00 in0.0 mm 0.00 in0.0 mm
11:45 PM 16.5°F-8.6°C 13.3°F-10.4°C 87% 7.0 mph WSW11.3 kmh WSW -- 30.24 in1024.0 mb 0.00 in0.0 mm 0.00 in0.0 mm 0.00 in0.0 mm
11:50 PM 16.2°F-8.8°C 12.7°F-10.7°C 86% 8.0 mph WSW12.9 kmh WSW -- 30.24 in1024.0 mb 0.00 in0.0 mm 0.00 in0.0 mm 0.00 in0.0 mm
11:55 PM 16.2°F-8.8°C 12.9°F-10.6°C 87% 5.0 mph WSW8.0 kmh WSW -- 30.24 in1024.0 mb 0.00 in0.0 mm 0.00 in0.0 mm 0.00 in0.0 mm